Alexandre Cardoso

Recruteur en chef - Alverca
20 Déc 2026
Dimanche
Processus

Personnalité

Adaptabilité (8) Ambition (18) Controverse (18) Loyauté (5) Pression (6) Professionnalisme (10) Sportivité (20) Tempérament (5)

Profil

Style d'entraînement Démocratique
Diplôme National B
Détermination 7
Gestion des joueurs 12
Motivation 12
Discipline 6
Satisfaction professionnelle
50%
Fatigue
0%
Rôle Recruteur en chef
Salaire 56.1K p/s
Contrat 14.03.2027

Performance

Comportement Normal
Efficacité de l'entraînement
26%
Développement des joueurs
45%
Prévention des blessures
55%
Mise en place tactique
40%

Événements récents

A évalué un joueur maintenant
Négociation de contrat entamée maintenant
A évalué un joueur maintenant
A évalué un joueur maintenant
Négociation de contrat entamée maintenant
A évalué un joueur maintenant
Négociation de contrat entamée maintenant
A observé un match maintenant

Suivi en cours

97
Joueur Club Statut Capacité Confiance Observé Dernière observation Dernier vote
Exequiel Zeballos Monza Actif 145 / 139 40% 2 19.12.2026 -
Yousef Salech Cardiff City Actif 129 / 136 40% 1 19.12.2026 -
Peter Valjent FK Senica Actif 113 / 99 40% 3 18.12.2026 -
Tamble Monteiro Rio Ave Actif 115 / 122 40% 1 18.12.2026 -
Rodrigo Muniz Fulham Actif 133 / 131 40% 2 17.12.2026 -
Nathan Bishop AFC Wimbledon Actif 107 / 93 40% 2 17.12.2026 -
Matthieu Epolo Standard Liege Actif 110 / 124 40% 1 17.12.2026 -
Tyreece Campbell Charlton Athletic Actif 125 / 106 40% 1 17.12.2026 -
Camilo Durán Bloemfontein Celtic Actif 134 / 111 40% 2 16.12.2026 -
Nicolò Zaniolo Udinese Actif 134 / 139 40% 1 16.12.2026 -
Florián Monzón Atlas Actif 131 / 125 40% 1 15.12.2026 -
Itumeleng Vilakazi Platinum Stars Actif 122 / 108 40% 2 13.12.2026 -
Henrique Araújo Casa Pia Actif 125 / 119 40% 1 13.12.2026 -
Everton Bala Levski Actif 126 / 121 40% 1 12.12.2026 -
Liam Delap Nottingham Forest Actif 152 / 159 40% 1 12.12.2026 -
Assane Diao Como Actif 147 / 144 40% 3 11.12.2026 -
Kermit Mokoena Ajax Cape Town Actif 121 / 107 40% 1 11.12.2026 -
Franculino Trabzonspor Actif 135 / 149 40% 3 10.12.2026 -
Armstrong Oko-Flex Levski Actif 135 / 140 40% 1 10.12.2026 -
Sorriso Famalicao Actif 120 / 138 40% 3 09.12.2026 -
Gonzalo Fulham Actif 150 / 152 40% 1 09.12.2026 -
Bilal Bayazıt Kayserispor Actif 110 / 128 40% 1 07.12.2026 -
Alfonso Trezza Arouca Actif 122 / 113 40% 1 07.12.2026 -
Ozziel Herrera Tigres Actif 119 / 145 40% 2 06.12.2026 -
Sam Bell Bristol City Actif 110 / 112 40% 1 06.12.2026 -
Joshua Zirkzee Manchester United Actif 147 / 153 40% 1 04.12.2026 -
Yanis Begraoui Estoril Praia Actif 138 / 144 40% 4 03.12.2026 -
Martín Tejón Maritimo Actif 125 / 130 40% 2 03.12.2026 -
Justo Giani Umraniyespor Actif 123 / 109 40% 3 02.12.2026 -
Kwame Opoku Asante Kotoko Actif 89 / 107 40% 1 30.11.2026 -
Kasper Høgh Bloemfontein Celtic Actif 141 / 145 40% 1 30.11.2026 -
Giorgi Mamardashvili Liverpool Actif 149 / 169 40% 1 30.11.2026 -
Francisco Meixedo Feirense Actif 121 / 113 40% 1 30.11.2026 -
Felipe Parra Envigado Actif 128 / 133 40% 1 29.11.2026 -
Jakub Stolarczyk Leicester City Actif 127 / 143 40% 1 29.11.2026 -
Joe Gelhardt Hull City Actif 141 / 122 40% 2 26.11.2026 -
Eduardo Lozano Veracruz Actif 148 / 153 40% 1 25.11.2026 -
Nicolò Tresoldi Club Brugge Actif 132 / 133 40% 1 23.11.2026 -
Pascal Loretz Luzern Actif 120 / 130 40% 1 23.11.2026 -
Fran Vieites Walsall Actif 110 / 114 40% 1 23.11.2026 -
Radek Vítek Middlesbrough Actif 143 / 122 40% 1 22.11.2026 -
Carl Rushworth Coventry City Actif 133 / 129 40% 1 22.11.2026 -
Luis Vázquez Birmingham Actif 120 / 123 40% 1 21.11.2026 -
Aaron Connolly Leyton Orient Actif 134 / 135 40% 1 19.11.2026 -
Percy Vilakazi Free State Stars Actif 104 / 107 40% 1 19.11.2026 -
Robin Roefs Sunderland Actif 133 / 153 40% 1 19.11.2026 -
Murphy Cooper Plymouth Argyle Actif 104 / 110 40% 1 19.11.2026 -
Martín Ojeda Orlando City Actif 130 / 123 40% 3 17.11.2026 -
Jefry Zapata Once Caldas Actif 126 / 105 40% 1 17.11.2026 Plus d'infos
Marco Carnesecchi Atalanta Actif 153 / 144 40% 1 17.11.2026 -
Kostantis Tzolakis Hull City Actif 147 / 147 40% 1 17.11.2026 -
Loum Tchaouna Coventry City Actif 147 / 137 40% 2 14.11.2026 -
Jordan Holsgrove Estoril Praia Actif 137 / 125 40% 1 14.11.2026 -
Haissem Hassan Bloemfontein Celtic Actif 148 / 116 40% 1 12.11.2026 -
Naïs Djouahra Arouca Actif 125 / 130 40% 1 12.11.2026 -
Amine Adli Bournemouth Actif 140 / 149 40% 1 11.11.2026 -
Víctor Gómez Braga Actif 142 / 144 40% 1 11.11.2026 Plus d'infos
Jaden Philogene Ipswich Town Actif 135 / 125 40% 1 10.11.2026 -
Kevin Fulham Actif 153 / 150 40% 1 10.11.2026 -
Santi García Gil Vicente Actif 135 / 121 40% 2 09.11.2026 -
Bongani Zungu Ajax Cape Town Actif 138 / 143 40% 1 09.11.2026 -
Jens Petter Hauge Bodo/Glimt Actif 139 / 133 40% 2 08.11.2026 -
Iker Benito Queretaro Actif 136 / 107 40% 1 08.11.2026 -
Morgan Gibbs-White Nottingham Forest Actif 164 / 140 40% 3 06.11.2026 -
Samuel Asamoah WAFA Actif 110 / 97 40% 1 06.11.2026 -
Rico Lewis Manchester City Actif 158 / 151 40% 1 04.11.2026 -
Aarón Molinas Defensa y Justicia Actif 133 / 120 40% 1 04.11.2026 -
Alejandro Piedrahita Deportivo Pereira Actif 116 / 126 40% 2 03.11.2026 -
Jack Clarke Ipswich Town Actif 138 / 128 40% 1 03.11.2026 -
Agustín Módica Gimnasia y Esgrima Actif 112 / 125 40% 1 03.11.2026 -
Jadon Sancho Manchester United Actif 142 / 149 40% 1 01.11.2026 -
Juan Bisanz Huracán Actif 137 / 130 40% 1 31.10.2026 -
Pau Víctor Braga Actif 135 / 128 40% 1 29.10.2026 Plus d'infos
Soma Anzai FC Tokyo Actif 119 / 142 40% 1 27.10.2026 -
Tyler Adams Bournemouth Actif 159 / 153 40% 1 27.10.2026 -
Jaminton Campaz Rosario Central Actif 122 / 135 40% 1 26.10.2026 -
Erick Sánchez Club America Actif 152 / 149 40% 1 24.10.2026 -
Savinho Tottenham Actif 160 / 169 40% 1 24.10.2026 -
Mohamed-Ali Cho Hull City Actif 122 / 127 40% 1 22.10.2026 -
Gustavo Silva Vitoria Guimaraes Actif 133 / 128 40% 2 21.10.2026 -
Marcus Edwards Burnley Actif 134 / 132 40% 1 21.10.2026 -
Joaquín Gho Argentinos Juniors Actif 123 / 130 40% 2 20.10.2026 -
Juan Sierra La Equidad Actif 120 / 132 40% 1 20.10.2026 -
Morgan Whittaker Middlesbrough Actif 125 / 138 40% 1 16.10.2026 -
Enzo Le Fée Sunderland Actif 148 / 146 40% 1 14.10.2026 -
Germán Berterame Inter Miami CF Actif 137 / 150 40% 1 10.10.2026 -
Dom Ballard Leyton Orient Actif 124 / 124 40% 1 10.10.2026 -
Žan Vipotnik Swansea City Actif 130 / 112 40% 1 07.10.2026 -
Evanilson Bournemouth Actif 144 / 162 40% 1 07.10.2026 -
Sota Kitano Red Bull Salzburg Actif 113 / 112 40% 1 06.10.2026 -
Luca Langoni New England Revolution Actif 133 / 143 40% 1 06.10.2026 -
Nico Paz Como Actif 162 / 145 40% 1 05.10.2026 -
Xavier Biscayzacú Defensor Sporting Perdu 132 / 132 40% 1 31.08.2026 -
Louback Atlético Mineiro Actif 95 / 97 40% 1 31.08.2026 -
Rúben Pina Leixões Actif 106 / 100 58% 1 10.08.2026 Approuver
Ruben Ramos LA Galaxy Perdu 103 / 102 40% 1 01.08.2026 -
Andrey Fernandes Vasco da Gama Perdu 84 / 91 40% 1 01.08.2026 -